createdAt,value
2018-05-31T00:02:20.098Z,5.93
2018-05-31T00:04:47.074Z,5.40
2018-05-31T00:07:13.775Z,4.90
2018-05-31T00:09:40.053Z,6.00
2018-05-31T00:12:07.126Z,5.90
2018-05-31T00:14:33.495Z,5.43
2018-05-31T00:16:59.823Z,4.30
2018-05-31T00:19:26.121Z,4.40
2018-05-31T00:21:53.124Z,4.90
2018-05-31T00:24:19.761Z,4.40
2018-05-31T00:26:46.437Z,4.87
2018-05-31T00:29:12.707Z,4.77
2018-05-31T00:31:39.392Z,4.47
2018-05-31T00:34:06.452Z,5.30
2018-05-31T00:36:32.748Z,5.00
2018-05-31T00:38:59.027Z,5.63
2018-05-31T00:41:26.842Z,4.03
2018-05-31T00:43:53.481Z,4.20
2018-05-31T00:46:19.716Z,3.43
2018-05-31T00:48:46.749Z,3.80
2018-05-31T00:51:13.032Z,4.27
2018-05-31T00:53:39.351Z,4.80
2018-05-31T00:56:15.732Z,3.87
2018-05-31T00:58:42.071Z,3.80
2018-05-31T01:01:08.359Z,4.47
2018-05-31T01:03:34.631Z,3.47
2018-05-31T01:06:01.683Z,3.97
2018-05-31T01:08:28.339Z,3.53
2018-05-31T01:10:54.684Z,3.37
2018-05-31T01:13:20.982Z,3.17
2018-05-31T01:15:48.032Z,3.80
2018-05-31T01:18:14.339Z,4.17
2018-05-31T01:20:41.432Z,3.47
2018-05-31T01:23:08.517Z,3.27
2018-05-31T01:25:35.197Z,3.50
2018-05-31T01:28:01.882Z,3.50
2018-05-31T01:30:28.921Z,3.17
2018-05-31T01:32:55.595Z,4.03
2018-05-31T01:35:21.886Z,3.43
2018-05-31T01:37:48.205Z,2.80
2018-05-31T01:40:14.522Z,3.07
2018-05-31T01:42:40.783Z,3.00
2018-05-31T01:45:07.782Z,3.10
2018-05-31T01:47:34.147Z,3.93
2018-05-31T01:50:00.782Z,4.70
2018-05-31T01:52:27.117Z,3.83
2018-05-31T01:54:53.348Z,3.53
2018-05-31T01:57:20.023Z,4.07
2018-05-31T01:59:47.007Z,3.50
2018-05-31T02:02:13.300Z,3.23
2018-05-31T02:04:39.586Z,3.77
2018-05-31T02:07:05.914Z,3.97
2018-05-31T02:09:32.569Z,4.03
2018-05-31T02:11:58.874Z,3.50
2018-05-31T02:14:25.122Z,3.63
2018-05-31T02:16:51.372Z,3.33
2018-05-31T02:19:17.683Z,3.67
2018-05-31T02:21:44.298Z,2.97
2018-05-31T02:24:11.681Z,3.80
2018-05-31T02:26:37.947Z,2.97
2018-05-31T02:29:04.668Z,4.50
2018-05-31T02:31:30.899Z,3.40
2018-05-31T02:33:57.209Z,4.00
2018-05-31T02:36:23.448Z,3.20
2018-05-31T02:38:51.436Z,2.70
2018-05-31T02:41:17.677Z,3.53
2018-05-31T02:43:43.939Z,2.90
2018-05-31T02:46:10.222Z,3.60
2018-05-31T02:48:37.247Z,3.77
2018-05-31T02:51:04.318Z,2.57
2018-05-31T02:53:31.324Z,3.43
2018-05-31T02:55:57.614Z,4.27
2018-05-31T02:58:24.597Z,3.70
2018-05-31T03:00:51.252Z,3.63
2018-05-31T03:03:17.488Z,4.00
2018-05-31T03:05:43.792Z,4.23
2018-05-31T03:08:10.047Z,4.23
2018-05-31T03:10:37.053Z,5.10
2018-05-31T03:13:03.368Z,4.10
2018-05-31T03:15:30.413Z,3.40
2018-05-31T03:17:57.042Z,3.00
2018-05-31T03:20:23.367Z,3.47
2018-05-31T03:22:49.990Z,4.33
2018-05-31T03:25:17.015Z,2.67
2018-05-31T03:27:43.274Z,3.30
2018-05-31T03:30:10.257Z,3.87
2018-05-31T03:32:37.263Z,4.87
2018-05-31T03:35:03.885Z,4.37
2018-05-31T03:37:30.217Z,3.33
2018-05-31T03:39:56.457Z,3.50
2018-05-31T03:42:23.167Z,4.57
2018-05-31T03:44:49.451Z,5.07
2018-05-31T03:47:15.758Z,4.93
2018-05-31T03:49:42.762Z,4.53
2018-05-31T03:52:09.832Z,3.23
2018-05-31T03:54:36.113Z,4.27
2018-05-31T03:57:02.473Z,3.07
2018-05-31T03:59:28.762Z,3.20
2018-05-31T04:01:55.779Z,3.33
2018-05-31T04:04:22.823Z,2.50
2018-05-31T04:06:49.933Z,3.00
2018-05-31T04:09:16.583Z,2.87
2018-05-31T04:11:42.849Z,3.10
2018-05-31T04:14:09.109Z,3.90
2018-05-31T04:16:36.079Z,3.00
2018-05-31T04:19:02.394Z,3.67
2018-05-31T04:21:29.433Z,3.50
2018-05-31T04:23:56.069Z,3.43
2018-05-31T04:26:22.339Z,3.87
2018-05-31T04:28:49.363Z,5.10
2018-05-31T04:31:15.639Z,3.83
2018-05-31T04:33:41.941Z,3.93
2018-05-31T04:36:08.507Z,3.43
2018-05-31T04:38:35.489Z,4.80
2018-05-31T04:41:02.504Z,3.53
2018-05-31T04:43:29.504Z,5.20
2018-05-31T04:45:55.784Z,4.60
2018-05-31T04:48:22.060Z,3.20
2018-05-31T04:50:48.375Z,4.37
2018-05-31T04:53:14.983Z,3.73
2018-05-31T04:55:41.284Z,4.30
2018-05-31T04:58:08.268Z,4.70
2018-05-31T05:00:34.569Z,3.50
2018-05-31T05:03:01.529Z,4.47
2018-05-31T05:05:27.815Z,3.50
2018-05-31T05:07:54.902Z,3.43
2018-05-31T05:10:21.225Z,3.30
2018-05-31T05:12:48.234Z,3.00
2018-05-31T05:15:14.524Z,3.93
2018-05-31T05:17:40.779Z,4.70
2018-05-31T05:20:08.175Z,3.43
2018-05-31T05:22:34.470Z,3.40
2018-05-31T05:25:00.780Z,4.07
2018-05-31T05:27:27.832Z,3.30
2018-05-31T05:29:54.818Z,3.03
2018-05-31T05:32:21.068Z,3.83
2018-05-31T05:34:47.299Z,3.37
2018-05-31T05:37:13.911Z,3.27
2018-05-31T05:39:40.548Z,3.03
2018-05-31T05:42:07.548Z,2.83
2018-05-31T05:44:33.789Z,3.13
2018-05-31T05:47:00.045Z,3.17
2018-05-31T05:49:26.283Z,2.50
2018-05-31T05:51:52.551Z,2.80
2018-05-31T05:54:19.545Z,3.27
2018-05-31T05:56:45.785Z,2.97
2018-05-31T05:59:12.801Z,3.00
2018-05-31T06:01:39.112Z,2.20
2018-05-31T06:04:06.179Z,3.30
2018-05-31T06:06:32.399Z,3.23
2018-05-31T06:08:59.419Z,3.90
2018-05-31T06:11:26.379Z,2.60
2018-05-31T06:13:53.030Z,3.27
2018-05-31T06:16:19.296Z,2.57
2018-05-31T06:18:46.284Z,3.63
2018-05-31T06:21:12.539Z,3.33
2018-05-31T06:23:38.784Z,2.70
2018-05-31T06:26:06.529Z,2.73
2018-05-31T06:28:32.779Z,2.90
2018-05-31T06:30:59.059Z,3.03
2018-05-31T06:33:25.730Z,2.97
2018-05-31T06:35:52.411Z,2.97
2018-05-31T06:38:19.408Z,2.77
2018-05-31T06:40:46.453Z,3.00
2018-05-31T06:43:12.679Z,2.50
2018-05-31T06:45:38.972Z,2.70
2018-05-31T06:48:05.625Z,2.73
2018-05-31T06:50:31.888Z,2.80
2018-05-31T06:52:58.171Z,3.40
2018-05-31T06:55:24.795Z,3.17
2018-05-31T06:57:51.844Z,2.87
2018-05-31T07:00:18.135Z,2.80
2018-05-31T07:02:44.457Z,2.50
2018-05-31T07:05:11.060Z,2.43
2018-05-31T07:07:37.730Z,3.53
2018-05-31T07:10:04.072Z,2.80
2018-05-31T07:12:31.111Z,2.37
2018-05-31T07:14:58.129Z,2.73
2018-05-31T07:17:24.415Z,2.93
2018-05-31T07:19:50.680Z,3.13
2018-05-31T07:22:17.741Z,2.83
2018-05-31T07:24:43.996Z,2.50
2018-05-31T07:27:10.341Z,2.23
2018-05-31T07:29:36.607Z,2.37
2018-05-31T07:32:02.894Z,2.67
2018-05-31T07:34:29.559Z,2.90
2018-05-31T07:36:55.864Z,3.20
2018-05-31T07:39:22.165Z,3.13
2018-05-31T07:41:48.462Z,3.30
2018-05-31T07:44:14.828Z,3.27
2018-05-31T07:46:41.086Z,2.67
2018-05-31T07:49:07.406Z,3.30
2018-05-31T07:51:34.424Z,3.10
2018-05-31T07:54:00.720Z,2.60
2018-05-31T07:56:27.358Z,2.93
2018-05-31T07:58:53.656Z,3.33
2018-05-31T08:01:20.314Z,2.83
2018-05-31T08:03:47.287Z,2.87
2018-05-31T08:06:13.571Z,2.77
2018-05-31T08:08:40.370Z,2.60
2018-05-31T08:11:06.691Z,2.37
2018-05-31T08:13:33.754Z,3.10
2018-05-31T08:16:00.780Z,2.73
2018-05-31T08:18:27.046Z,2.80
2018-05-31T08:20:53.291Z,2.47
2018-05-31T08:23:19.974Z,2.60
2018-05-31T08:25:46.240Z,2.40
2018-05-31T08:28:12.532Z,3.13
2018-05-31T08:30:39.769Z,3.20
2018-05-31T08:33:06.076Z,3.10
2018-05-31T08:35:33.114Z,3.27
2018-05-31T08:37:59.390Z,2.80
2018-05-31T08:40:26.111Z,2.20
2018-05-31T08:42:53.172Z,2.70
2018-05-31T08:45:20.134Z,3.20
2018-05-31T08:47:47.181Z,3.00
2018-05-31T08:50:14.170Z,2.57
2018-05-31T08:52:41.191Z,5.60
2018-05-31T08:55:08.167Z,2.80
2018-05-31T08:57:34.422Z,2.50
2018-05-31T09:00:00.673Z,3.23
2018-05-31T09:02:26.928Z,2.60
2018-05-31T09:04:54.000Z,3.30
2018-05-31T09:07:21.002Z,3.20
2018-05-31T09:09:47.265Z,2.33
2018-05-31T09:12:13.529Z,2.83
2018-05-31T09:14:40.219Z,2.60
2018-05-31T09:17:06.460Z,3.90
2018-05-31T09:19:33.097Z,4.13
2018-05-31T09:21:59.402Z,2.93
2018-05-31T09:24:26.392Z,3.53
2018-05-31T09:26:52.700Z,2.83
2018-05-31T09:29:18.960Z,3.03
2018-05-31T09:31:45.295Z,3.00
2018-05-31T09:34:11.532Z,3.07
2018-05-31T09:36:37.871Z,2.90
2018-05-31T09:39:05.436Z,3.00
2018-05-31T09:41:31.754Z,2.93
2018-05-31T09:43:58.059Z,2.67
2018-05-31T09:46:25.150Z,2.40
2018-05-31T09:48:51.495Z,2.53
2018-05-31T09:51:17.771Z,2.30
2018-05-31T09:53:44.042Z,2.80
2018-05-31T09:56:10.339Z,2.73
2018-05-31T09:58:36.582Z,2.30
2018-05-31T10:01:03.260Z,2.20
2018-05-31T10:03:29.529Z,2.10
2018-05-31T10:05:55.795Z,2.73
2018-05-31T10:08:22.043Z,2.30
2018-05-31T10:10:49.125Z,2.40
2018-05-31T10:13:15.472Z,2.27
2018-05-31T10:15:43.640Z,2.30
2018-05-31T10:18:09.966Z,2.37
2018-05-31T10:20:36.952Z,2.20
2018-05-31T10:23:03.241Z,2.40
2018-05-31T10:25:29.528Z,2.43
2018-05-31T10:27:56.485Z,2.37
2018-05-31T10:30:22.792Z,2.67
2018-05-31T10:32:49.404Z,3.10
2018-05-31T10:35:15.707Z,3.30
2018-05-31T10:37:41.961Z,2.63
2018-05-31T10:40:08.237Z,2.87
2018-05-31T10:42:34.986Z,2.93
2018-05-31T10:45:09.626Z,3.33
2018-05-31T10:47:36.336Z,3.30
2018-05-31T10:50:03.432Z,3.33
2018-05-31T10:52:30.057Z,3.13
2018-05-31T10:54:57.091Z,3.33
2018-05-31T10:57:24.082Z,3.27
2018-05-31T10:59:50.373Z,2.70
2018-05-31T11:02:16.651Z,3.13
2018-05-31T11:04:42.892Z,3.70
2018-05-31T11:07:09.178Z,2.93
2018-05-31T11:09:35.433Z,3.30
2018-05-31T11:12:02.108Z,3.00
2018-05-31T11:14:28.346Z,3.17
2018-05-31T11:16:54.638Z,3.40
2018-05-31T11:19:20.894Z,3.70
2018-05-31T11:21:47.908Z,3.30
2018-05-31T11:24:14.192Z,4.13
2018-05-31T11:26:40.749Z,2.93
2018-05-31T11:29:06.991Z,3.70
2018-05-31T11:31:33.252Z,3.00
2018-05-31T11:33:59.801Z,2.90
2018-05-31T11:36:26.108Z,3.10
2018-05-31T11:38:53.111Z,3.60
2018-05-31T11:41:19.361Z,3.23
2018-05-31T11:43:46.352Z,3.10
2018-05-31T11:46:12.619Z,3.70
2018-05-31T11:48:39.267Z,3.37
2018-05-31T11:51:05.552Z,4.53
2018-05-31T11:53:31.807Z,3.67
2018-05-31T11:55:58.052Z,3.50
2018-05-31T11:58:24.292Z,3.80
2018-05-31T12:00:50.532Z,3.80
2018-05-31T12:03:16.832Z,3.57
2018-05-31T12:05:43.124Z,3.40
2018-05-31T12:08:09.421Z,2.90
2018-05-31T12:10:36.444Z,3.40
2018-05-31T12:13:03.463Z,3.40
2018-05-31T12:15:29.756Z,3.47
2018-05-31T12:17:56.072Z,3.07
2018-05-31T12:20:23.083Z,3.50
2018-05-31T12:22:49.356Z,3.33
2018-05-31T12:25:16.372Z,3.53
2018-05-31T12:27:42.658Z,3.60
2018-05-31T12:30:08.985Z,3.03
2018-05-31T12:32:35.990Z,3.20
2018-05-31T12:37:43.616Z,3.20
2018-05-31T12:40:10.626Z,3.10
2018-05-31T12:42:36.911Z,3.87
2018-05-31T12:45:03.212Z,3.30
2018-05-31T12:47:29.484Z,3.13
2018-05-31T12:49:55.773Z,3.03
2018-05-31T12:52:22.094Z,3.57
2018-05-31T12:54:48.368Z,3.40
2018-05-31T12:57:14.623Z,3.30
2018-05-31T12:59:40.871Z,2.60
2018-05-31T13:02:07.197Z,2.97
2018-05-31T13:04:33.418Z,2.90
2018-05-31T13:06:59.693Z,2.73
2018-05-31T13:09:26.664Z,3.07
2018-05-31T13:11:52.991Z,3.07
2018-05-31T13:14:19.991Z,3.07
2018-05-31T13:16:46.265Z,3.30
2018-05-31T13:19:12.574Z,3.17
2018-05-31T13:21:38.826Z,2.77
2018-05-31T13:24:05.187Z,2.90
2018-05-31T13:26:32.176Z,2.80
2018-05-31T13:28:58.457Z,2.90
2018-05-31T13:31:25.122Z,2.73
2018-05-31T13:33:52.117Z,2.87
2018-05-31T13:36:18.390Z,2.87
2018-05-31T13:38:44.674Z,2.83
2018-05-31T13:41:10.973Z,3.00
2018-05-31T13:43:37.251Z,3.20
2018-05-31T13:46:04.702Z,2.87
2018-05-31T13:48:30.968Z,2.80
2018-05-31T13:50:57.243Z,3.37
2018-05-31T13:53:24.268Z,3.45
2018-05-31T13:55:50.551Z,3.22
2018-05-31T13:58:17.517Z,3.62
2018-05-31T14:00:43.802Z,2.87
2018-05-31T14:03:10.768Z,3.30
2018-05-31T14:05:36.978Z,3.37
2018-05-31T14:08:03.250Z,3.17
2018-05-31T14:10:30.282Z,3.07
2018-05-31T14:12:56.579Z,3.27
2018-05-31T14:15:22.847Z,3.27
2018-05-31T14:17:49.157Z,3.80
2018-05-31T14:20:15.411Z,3.30
2018-05-31T14:22:41.703Z,3.87
2018-05-31T14:25:07.928Z,3.03
2018-05-31T14:27:34.972Z,3.67
2018-05-31T14:30:01.220Z,3.73
2018-05-31T14:32:28.247Z,3.70
2018-05-31T14:34:54.456Z,3.40
2018-05-31T14:37:20.731Z,3.70
2018-05-31T14:39:46.988Z,4.07
2018-05-31T14:42:13.268Z,3.73
2018-05-31T14:44:39.553Z,3.50
2018-05-31T14:47:06.590Z,3.80
2018-05-31T14:49:32.849Z,3.70
2018-05-31T14:51:59.076Z,3.53
2018-05-31T14:54:26.099Z,3.93
2018-05-31T14:56:52.403Z,3.67
2018-05-31T14:59:18.632Z,3.47
2018-05-31T15:01:44.903Z,4.30
2018-05-31T15:04:11.239Z,3.20
2018-05-31T15:06:37.527Z,3.13
2018-05-31T15:09:04.724Z,3.07
2018-05-31T15:11:31.748Z,3.43
2018-05-31T15:13:58.380Z,3.00
2018-05-31T15:16:24.707Z,3.07
2018-05-31T15:18:51.754Z,2.87
2018-05-31T15:21:18.733Z,4.40
2018-05-31T15:23:44.990Z,4.07
2018-05-31T15:26:11.261Z,3.60
2018-05-31T15:28:37.539Z,2.70
2018-05-31T15:31:03.813Z,2.93
2018-05-31T15:33:30.773Z,3.43
2018-05-31T15:35:57.074Z,3.23
2018-05-31T15:38:23.288Z,3.00
2018-05-31T15:40:50.274Z,2.80
2018-05-31T15:43:16.545Z,3.57
2018-05-31T15:45:42.874Z,3.27
2018-05-31T15:48:09.088Z,3.13
2018-05-31T15:50:35.340Z,3.27
2018-05-31T15:53:01.634Z,3.77
2018-05-31T15:55:28.647Z,4.40
2018-05-31T15:57:54.883Z,3.37
2018-05-31T16:00:21.189Z,3.83
2018-05-31T16:02:47.388Z,3.40
2018-05-31T16:05:13.729Z,3.40
2018-05-31T16:07:39.987Z,3.50
2018-05-31T16:10:06.284Z,4.13
2018-05-31T16:12:33.264Z,3.53
2018-05-31T16:14:59.519Z,4.57
2018-05-31T16:17:26.115Z,3.57
2018-05-31T16:19:53.146Z,3.83
2018-05-31T16:22:22.119Z,4.20
2018-05-31T16:24:54.358Z,4.00
2018-05-31T16:27:28.976Z,4.00
2018-05-31T16:29:57.422Z,3.60
2018-05-31T16:32:24.395Z,4.20
2018-05-31T16:34:51.208Z,3.57
2018-05-31T16:37:17.645Z,3.50
2018-05-31T16:39:43.912Z,3.70
2018-05-31T16:42:10.191Z,2.83
2018-05-31T16:44:36.453Z,3.27
2018-05-31T16:47:02.914Z,3.40
2018-05-31T16:49:29.208Z,3.93
2018-05-31T16:51:55.459Z,3.80
2018-05-31T16:54:21.735Z,3.23
2018-05-31T16:56:48.699Z,4.00
2018-05-31T16:59:15.847Z,4.37
2018-05-31T17:01:42.055Z,4.50
2018-05-31T17:04:08.314Z,4.27
2018-05-31T17:06:34.559Z,4.80
2018-05-31T17:09:01.573Z,3.27
2018-05-31T17:11:27.858Z,2.87
2018-05-31T17:13:54.153Z,4.00
2018-05-31T17:16:20.413Z,4.10
2018-05-31T17:18:47.482Z,4.70
2018-05-31T17:21:14.518Z,3.87
2018-05-31T17:23:41.478Z,4.17
2018-05-31T17:26:08.507Z,3.53
2018-05-31T17:28:34.790Z,3.17
2018-05-31T17:31:01.093Z,3.10
2018-05-31T17:33:27.370Z,4.40
2018-05-31T17:35:53.684Z,3.50
2018-05-31T17:38:20.655Z,2.60
2018-05-31T17:40:47.839Z,2.80
2018-05-31T17:43:14.125Z,3.57
2018-05-31T17:45:41.198Z,3.67
2018-05-31T17:48:07.578Z,3.83
2018-05-31T17:50:33.790Z,3.13
2018-05-31T17:53:00.054Z,3.50
2018-05-31T17:55:26.321Z,3.30
2018-05-31T17:57:53.379Z,4.30
2018-05-31T18:00:20.359Z,5.43
2018-05-31T18:02:46.720Z,4.07
2018-05-31T18:05:13.549Z,3.13
2018-05-31T18:07:39.895Z,4.43
2018-05-31T18:10:06.145Z,3.80
2018-05-31T18:12:33.174Z,3.33
2018-05-31T18:14:59.440Z,3.90
2018-05-31T18:17:25.915Z,3.33
2018-05-31T18:19:52.908Z,3.63
2018-05-31T18:22:19.223Z,4.30
2018-05-31T18:24:45.483Z,3.97
2018-05-31T18:27:11.715Z,3.97
2018-05-31T18:29:38.010Z,4.20
2018-05-31T18:32:05.007Z,3.10
2018-05-31T18:34:31.340Z,4.10
2018-05-31T18:36:58.384Z,3.33
2018-05-31T18:39:24.773Z,3.00
2018-05-31T18:41:51.060Z,3.83
2018-05-31T18:44:17.495Z,4.47
2018-05-31T18:46:43.780Z,3.17
2018-05-31T18:49:11.034Z,3.20
2018-05-31T18:51:37.315Z,2.97
2018-05-31T18:54:04.757Z,2.77
2018-05-31T18:56:31.070Z,3.40
2018-05-31T18:58:57.808Z,3.83
2018-05-31T19:01:25.021Z,3.63
2018-05-31T19:03:52.174Z,3.70
2018-05-31T19:06:19.186Z,3.40
2018-05-31T19:08:45.655Z,4.17
2018-05-31T19:11:12.009Z,6.70
2018-05-31T19:13:44.931Z,4.63
2018-05-31T19:16:11.225Z,3.97
2018-05-31T19:18:44.400Z,3.93
2018-05-31T19:21:10.742Z,4.47
2018-05-31T19:23:37.215Z,3.83
2018-05-31T19:26:03.542Z,4.93
2018-05-31T19:28:30.610Z,3.93
2018-05-31T19:31:03.025Z,3.90
2018-05-31T19:33:30.041Z,3.70
2018-05-31T19:36:02.352Z,3.57
2018-05-31T19:38:29.807Z,3.50
2018-05-31T19:40:56.074Z,5.40
2018-05-31T19:43:28.221Z,4.00
2018-05-31T19:45:54.565Z,3.70
2018-05-31T19:48:21.196Z,3.50
2018-05-31T19:50:47.711Z,4.10
2018-05-31T19:53:20.711Z,3.50
2018-05-31T19:55:47.240Z,3.60
2018-05-31T19:58:20.133Z,3.60
2018-05-31T20:00:52.635Z,3.63
2018-05-31T20:03:25.742Z,4.00
2018-05-31T20:05:52.631Z,4.10
2018-05-31T20:08:19.924Z,3.47
2018-05-31T20:10:46.786Z,3.80
2018-05-31T20:13:13.441Z,3.63
2018-05-31T20:15:39.761Z,4.27
2018-05-31T20:18:06.071Z,4.70
2018-05-31T20:20:32.336Z,3.83
2018-05-31T20:22:58.639Z,3.93
2018-05-31T20:25:25.680Z,4.33
2018-05-31T20:27:52.728Z,4.23
2018-05-31T20:30:20.009Z,3.77
2018-05-31T20:32:46.585Z,3.70
2018-05-31T20:35:12.863Z,4.30
2018-05-31T20:37:39.861Z,5.13
2018-05-31T20:40:06.331Z,4.63
2018-05-31T20:42:32.654Z,3.80
2018-05-31T20:44:59.227Z,3.80
2018-05-31T20:47:26.560Z,5.47
2018-05-31T20:49:52.769Z,4.10
2018-05-31T20:52:19.266Z,4.23
2018-05-31T20:54:45.923Z,4.43
2018-05-31T20:57:12.957Z,5.43
2018-05-31T20:59:39.436Z,4.73
2018-05-31T21:02:06.141Z,4.50
2018-05-31T21:04:32.433Z,5.07
2018-05-31T21:06:58.727Z,4.20
2018-05-31T21:09:25.203Z,4.07
2018-05-31T21:11:52.696Z,4.93
2018-05-31T21:14:19.056Z,4.17
2018-05-31T21:16:45.265Z,3.93
2018-05-31T21:19:11.555Z,4.13
2018-05-31T21:21:38.576Z,4.13
2018-05-31T21:24:04.865Z,4.70
2018-05-31T21:26:31.472Z,5.20
2018-05-31T21:28:57.777Z,3.70
2018-05-31T21:31:24.001Z,4.73
2018-05-31T21:33:50.255Z,4.60
2018-05-31T21:36:17.242Z,5.43
2018-05-31T21:38:45.140Z,4.40
2018-05-31T21:41:11.860Z,5.37
2018-05-31T21:43:38.142Z,3.80
2018-05-31T21:46:04.585Z,3.30
2018-05-31T21:48:31.956Z,3.17
2018-05-31T21:50:58.231Z,3.33
2018-05-31T21:53:24.500Z,3.20
2018-05-31T21:55:50.756Z,3.40
2018-05-31T21:58:17.039Z,2.97
2018-05-31T22:00:49.426Z,2.83
2018-05-31T22:03:16.436Z,3.10
2018-05-31T22:05:42.760Z,1.57
2018-05-31T22:08:09.340Z,1.47
2018-05-31T22:10:36.372Z,1.20
2018-05-31T22:13:02.680Z,1.20
2018-05-31T22:15:28.888Z,1.03
2018-05-31T22:17:55.934Z,1.10
2018-05-31T22:20:22.948Z,0.90
2018-05-31T22:22:49.976Z,1.00
2018-05-31T22:25:16.215Z,0.90
2018-05-31T22:27:42.545Z,1.00
2018-05-31T22:30:08.831Z,1.23
2018-05-31T22:32:35.212Z,1.00
